Terminal Aerodrome Forecast
Issued by NWS Wilmington, OH

Home | Current Version | Previous Version | Text Only | Print | Product List | Glossary On
Versions: 1 2 3 4 5 6 7 8 9 10 11 12 13 14 15 16 17 18 19
000
FTUS41 KILN 291417 AAA
TAFDAY
TAF AMD
KDAY 291417Z 2914/3012 22008KT P6SM SCT060 BKN200
     FM291600 22010KT P6SM VCSH BKN040
     FM300200 18005KT P6SM VCSH BKN035 BKN090=

USA.gov is the U.S. government's official web portal to all federal, state and local government web resources and services.